createdAt,value
2024-01-28T00:02:06.419Z,103192.56
2024-01-28T00:04:34.789Z,103182.00
2024-01-28T00:07:03.056Z,103186.38
2024-01-28T00:09:31.345Z,103189.06
2024-01-28T00:12:01.017Z,103190.94
2024-01-28T00:14:29.236Z,103187.19
2024-01-28T00:16:57.442Z,103188.25
2024-01-28T00:19:25.703Z,103184.69
2024-01-28T00:21:54.101Z,103177.47
2024-01-28T00:24:23.265Z,103180.97
2024-01-28T00:26:53.224Z,103171.25
2024-01-28T00:29:30.000Z,103183.66
2024-01-28T00:31:58.279Z,103186.38
2024-01-28T00:34:28.291Z,103189.28
2024-01-28T00:36:56.607Z,103194.66
2024-01-28T00:39:26.207Z,103192.78
2024-01-28T00:41:54.502Z,103196.31
2024-01-28T00:44:24.194Z,103189.28
2024-01-28T00:46:52.400Z,103182.22
2024-01-28T00:49:21.166Z,103183.06
2024-01-28T00:51:49.446Z,103180.38
2024-01-28T00:54:17.988Z,103173.19
2024-01-28T00:56:46.237Z,103179.53
2024-01-28T00:59:14.948Z,103183.06
2024-01-28T01:01:44.574Z,103188.44
2024-01-28T01:04:12.898Z,103189.47
2024-01-28T01:06:44.840Z,103197.75
2024-01-28T01:09:14.075Z,103201.91
2024-01-28T01:11:45.104Z,103194.06
2024-01-28T01:14:13.563Z,103194.84
2024-01-28T01:16:41.823Z,103195.69
2024-01-28T01:19:11.555Z,103194.84
2024-01-28T01:21:39.962Z,103184.91
2024-01-28T01:24:08.268Z,103188.66
2024-01-28T01:26:36.484Z,103186.78
2024-01-28T01:29:04.723Z,103185.16
2024-01-28T01:31:32.990Z,103186.78
2024-01-28T01:34:01.448Z,103195.94
2024-01-28T01:36:31.786Z,103200.25
2024-01-28T01:39:00.095Z,103199.44
2024-01-28T01:41:28.405Z,103199.44
2024-01-28T01:43:56.769Z,103194.25
2024-01-28T01:46:25.477Z,103189.91
2024-01-28T01:48:54.299Z,103184.31
2024-01-28T01:51:24.505Z,103181.63
2024-01-28T01:53:54.280Z,103182.47
2024-01-28T01:56:22.817Z,103177.91
2024-01-28T01:58:51.152Z,103178.13
2024-01-28T02:01:19.515Z,103178.13
2024-01-28T02:03:47.959Z,103175.44
2024-01-28T02:06:18.440Z,103179.16
2024-01-28T02:08:47.903Z,103179.16
2024-01-28T02:11:17.687Z,103185.59
2024-01-28T02:13:45.925Z,103194.47
2024-01-28T02:16:14.120Z,103193.66
2024-01-28T02:18:42.667Z,103192.59
2024-01-28T02:21:11.097Z,103192.59
2024-01-28T02:23:40.941Z,103194.47
2024-01-28T02:26:09.372Z,103189.91
2024-01-28T02:28:37.746Z,103180.22
2024-01-28T02:31:06.411Z,103188.28
2024-01-28T02:33:34.774Z,103183.94
2024-01-28T02:36:03.200Z,103189.31
2024-01-28T02:38:31.469Z,103188.28
2024-01-28T02:41:01.672Z,103193.66
2024-01-28T02:43:29.832Z,103193.66
2024-01-28T02:45:58.189Z,103191.78
2024-01-28T02:48:26.722Z,103185.19
2024-01-28T02:50:55.100Z,103192.81
2024-01-28T02:53:23.823Z,103198.19
2024-01-28T02:55:52.149Z,103198.19
2024-01-28T02:58:21.832Z,103206.25
2024-01-28T03:00:50.210Z,103205.44
2024-01-28T03:03:18.543Z,103210.81
2024-01-28T03:05:46.909Z,103210.00
2024-01-28T03:08:15.202Z,103202.75
2024-01-28T03:10:43.568Z,103200.06
2024-01-28T03:13:11.880Z,103194.09
2024-01-28T03:15:41.688Z,103195.72
2024-01-28T03:18:10.371Z,103191.41
2024-01-28T03:20:38.642Z,103195.72
2024-01-28T03:23:07.018Z,103195.72
2024-01-28T03:25:35.303Z,103193.03
2024-01-28T03:28:03.610Z,103193.03
2024-01-28T03:30:31.989Z,103197.59
2024-01-28T03:33:01.848Z,103209.16
2024-01-28T03:35:30.221Z,103193.25
2024-01-28T03:37:58.498Z,103205.88
2024-01-28T03:40:28.097Z,103203.19
2024-01-28T03:42:56.464Z,103204.00
2024-01-28T03:45:24.722Z,103209.38
2024-01-28T03:47:53.186Z,103209.59
2024-01-28T03:50:23.651Z,103206.91
2024-01-28T03:52:51.893Z,103204.22
2024-01-28T03:55:20.235Z,103196.16
2024-01-28T03:57:48.590Z,103196.38
2024-01-28T04:00:19.933Z,103198.84
2024-01-28T04:02:48.350Z,103198.25
2024-01-28T04:05:16.656Z,103194.53
2024-01-28T04:07:46.467Z,103190.19
2024-01-28T04:10:17.139Z,103196.38
2024-01-28T04:12:45.576Z,103197.22
2024-01-28T04:15:13.923Z,103191.00
2024-01-28T04:17:42.342Z,103184.81
2024-01-28T04:20:11.383Z,103197.44
2024-01-28T04:22:39.901Z,103191.25
2024-01-28T04:25:10.127Z,103159.69
2024-01-28T04:27:38.808Z,103191.25
2024-01-28T04:30:10.218Z,103188.56
2024-01-28T04:32:38.836Z,103188.56
2024-01-28T04:35:07.719Z,103189.38
2024-01-28T04:37:36.310Z,103176.16
2024-01-28T04:40:05.785Z,103182.13
2024-01-28T04:42:35.802Z,103187.50
2024-01-28T04:45:04.270Z,103180.50
2024-01-28T04:47:32.893Z,103188.56
2024-01-28T04:50:01.404Z,103193.94
2024-01-28T04:52:29.859Z,103187.72
2024-01-28T04:54:58.249Z,103194.97
2024-01-28T04:57:26.773Z,103200.34
2024-01-28T04:59:56.533Z,103205.72
2024-01-28T05:02:24.876Z,103202.22
2024-01-28T05:04:53.225Z,103205.94
2024-01-28T05:07:21.662Z,103212.13
2024-01-28T05:09:50.154Z,103215.66
2024-01-28T05:12:18.576Z,103217.50
2024-01-28T05:14:46.961Z,103216.91
2024-01-28T05:17:16.744Z,103214.81
2024-01-28T05:19:45.170Z,103214.81
2024-01-28T05:22:13.579Z,103218.34
2024-01-28T05:24:43.828Z,103222.28
2024-01-28T05:27:12.203Z,103222.28
2024-01-28T05:29:40.633Z,103223.31
2024-01-28T05:32:09.932Z,103220.63
2024-01-28T05:34:39.807Z,103219.59
2024-01-28T05:37:08.191Z,103203.34
2024-01-28T05:39:37.437Z,103217.94
2024-01-28T05:42:06.144Z,103219.59
2024-01-28T05:44:34.515Z,103223.94
2024-01-28T05:47:04.642Z,103221.47
2024-01-28T05:49:33.063Z,103209.03
2024-01-28T05:52:02.766Z,103218.78
2024-01-28T05:54:32.116Z,103219.81
2024-01-28T05:57:01.019Z,103230.56
2024-01-28T05:59:29.455Z,103225.19
2024-01-28T06:01:57.759Z,103228.69
2024-01-28T06:04:26.117Z,103231.38
2024-01-28T06:06:54.443Z,103236.75
2024-01-28T06:09:24.346Z,103224.38
2024-01-28T06:11:52.684Z,103226.84
2024-01-28T06:14:21.019Z,103226.19
2024-01-28T06:16:49.426Z,103228.69
2024-01-28T06:19:17.872Z,103228.69
2024-01-28T06:21:46.630Z,103230.56
2024-01-28T06:24:15.367Z,103236.97
2024-01-28T06:26:45.032Z,103252.88
2024-01-28T06:29:13.424Z,103251.25
2024-01-28T06:31:41.749Z,103244.22
2024-01-28T06:34:10.166Z,103236.13
2024-01-28T06:36:38.585Z,103238.00
2024-01-28T06:39:06.911Z,103240.91
2024-01-28T06:41:35.924Z,103243.41
2024-01-28T06:44:05.447Z,103241.53
2024-01-28T06:46:33.786Z,103234.47
2024-01-28T06:49:02.797Z,103247.09
2024-01-28T06:51:31.030Z,103247.91
2024-01-28T06:54:00.003Z,103247.91
2024-01-28T06:56:28.554Z,103247.91
2024-01-28T06:58:57.240Z,103251.66
2024-01-28T07:01:27.237Z,103257.03
2024-01-28T07:03:55.690Z,103244.63
2024-01-28T07:06:24.177Z,103246.50
2024-01-28T07:08:52.504Z,103239.25
2024-01-28T07:11:21.013Z,103243.81
2024-01-28T07:13:49.292Z,103239.25
2024-01-28T07:16:17.727Z,103239.47
2024-01-28T07:18:47.432Z,103236.78
2024-01-28T07:21:16.159Z,103239.47
2024-01-28T07:23:44.702Z,103248.38
2024-01-28T07:26:13.189Z,103243.00
2024-01-28T07:28:41.683Z,103239.47
2024-01-28T07:31:10.694Z,103243.22
2024-01-28T07:33:38.856Z,103241.34
2024-01-28T07:36:09.366Z,103241.34
2024-01-28T07:38:38.138Z,103246.72
2024-01-28T07:41:07.384Z,103246.72
2024-01-28T07:43:36.412Z,103245.06
2024-01-28T07:46:04.864Z,103241.34
2024-01-28T07:48:33.405Z,103245.91
2024-01-28T07:51:01.965Z,103238.88
2024-01-28T07:53:31.649Z,103244.25
2024-01-28T07:56:01.456Z,103241.56
2024-01-28T07:58:29.729Z,103237.00
2024-01-28T08:00:58.292Z,103239.69
2024-01-28T08:03:26.704Z,103243.44
2024-01-28T08:05:55.108Z,103254.19
2024-01-28T08:08:23.462Z,103247.16
2024-01-28T08:10:53.244Z,103251.50
2024-01-28T08:13:23.297Z,103255.00
2024-01-28T08:15:51.768Z,103255.22
2024-01-28T08:18:20.159Z,103254.19
2024-01-28T08:20:48.608Z,103254.19
2024-01-28T08:23:17.032Z,103249.84
2024-01-28T08:25:46.185Z,103249.63
2024-01-28T08:28:15.828Z,103243.44
2024-01-28T08:30:44.292Z,103240.13
2024-01-28T08:33:12.575Z,103238.06
2024-01-28T08:35:42.701Z,103247.38
2024-01-28T08:38:11.461Z,103236.41
2024-01-28T08:40:39.910Z,103239.91
2024-01-28T08:43:09.615Z,103247.16
2024-01-28T08:45:39.552Z,103259.56
2024-01-28T08:48:08.962Z,103258.13
2024-01-28T08:50:39.190Z,103252.53
2024-01-28T08:53:07.565Z,103258.72
2024-01-28T08:55:35.978Z,103248.19
2024-01-28T08:58:04.223Z,103262.47
2024-01-28T09:00:32.803Z,103252.53
2024-01-28T09:03:02.742Z,103257.09
2024-01-28T09:05:31.338Z,103257.91
2024-01-28T09:07:59.687Z,103260.59
2024-01-28T09:10:28.010Z,103263.28
2024-01-28T09:12:56.296Z,103258.72
2024-01-28T09:15:25.143Z,103255.22
2024-01-28T09:17:53.625Z,103257.91
2024-01-28T09:20:23.329Z,103259.78
2024-01-28T09:22:51.648Z,103259.97
2024-01-28T09:25:19.821Z,103264.94
2024-01-28T09:27:50.180Z,103260.59
2024-01-28T09:30:19.015Z,103267.84
2024-01-28T09:32:49.117Z,103267.00
2024-01-28T09:35:17.644Z,103275.06
2024-01-28T09:37:48.119Z,103272.38
2024-01-28T09:40:16.589Z,103267.00
2024-01-28T09:42:49.737Z,103265.16
2024-01-28T09:45:18.950Z,103257.31
2024-01-28T09:47:47.698Z,103257.31
2024-01-28T09:50:16.090Z,103252.53
2024-01-28T09:52:44.363Z,103246.34
2024-01-28T09:55:14.365Z,103253.56
2024-01-28T09:57:42.777Z,103254.41
2024-01-28T10:00:11.909Z,103244.69
2024-01-28T10:02:44.484Z,103240.13
2024-01-28T10:05:16.299Z,103238.28
2024-01-28T10:07:45.612Z,103221.31
2024-01-28T10:10:17.146Z,103229.38
2024-01-28T10:12:45.767Z,103231.22
2024-01-28T10:15:17.904Z,103228.56
2024-01-28T10:17:49.437Z,103236.41
2024-01-28T10:20:18.692Z,103242.81
2024-01-28T10:22:47.281Z,103246.34
2024-01-28T10:25:19.110Z,103237.44
2024-01-28T10:27:48.600Z,103218.44
2024-01-28T10:30:18.401Z,103232.25
2024-01-28T10:32:46.972Z,103224.00
2024-01-28T10:35:16.061Z,103214.91
2024-01-28T10:37:44.131Z,103217.81
2024-01-28T10:40:13.142Z,103207.88
2024-01-28T10:42:43.289Z,103206.84
2024-01-28T10:45:13.133Z,103197.97
2024-01-28T10:47:42.551Z,103202.50
2024-01-28T10:50:12.329Z,103197.13
2024-01-28T10:52:40.788Z,103197.13
2024-01-28T10:55:10.750Z,103195.69
2024-01-28T10:57:39.015Z,103201.47
2024-01-28T11:00:11.935Z,103195.28
2024-01-28T11:02:41.634Z,103197.13
2024-01-28T11:05:10.600Z,103200.84
2024-01-28T11:07:41.311Z,103192.59
2024-01-28T11:10:12.661Z,103186.38
2024-01-28T11:12:40.680Z,103179.97
2024-01-28T11:15:14.931Z,103169.22
2024-01-28T11:17:43.301Z,103169.41
2024-01-28T11:20:13.134Z,103167.53
2024-01-28T11:22:48.829Z,103165.50
2024-01-28T11:25:20.510Z,103161.16
2024-01-28T11:27:49.889Z,103156.81
2024-01-28T11:30:23.448Z,103156.81
2024-01-28T11:32:53.678Z,103152.69
2024-01-28T11:35:22.593Z,103151.22
2024-01-28T11:37:54.485Z,103142.34
2024-01-28T11:40:24.969Z,103148.53
2024-01-28T11:42:54.500Z,103152.06
2024-01-28T11:45:26.656Z,103135.94
2024-01-28T11:47:55.400Z,103130.56
2024-01-28T11:50:23.907Z,103122.50
2024-01-28T11:52:52.245Z,103118.75
2024-01-28T11:55:20.738Z,103123.53
2024-01-28T11:57:50.806Z,103120.63
2024-01-28T12:00:19.676Z,103113.38
2024-01-28T12:02:49.340Z,103109.88
2024-01-28T12:05:17.682Z,103105.31
2024-01-28T12:07:48.394Z,103092.06
2024-01-28T12:10:16.944Z,103098.09
2024-01-28T12:12:45.718Z,103099.94
2024-01-28T12:15:15.672Z,103099.13
2024-01-28T12:17:45.612Z,103091.84
2024-01-28T12:20:24.153Z,103092.50
2024-01-28T12:22:52.781Z,103100.56
2024-01-28T12:25:24.792Z,103096.22
2024-01-28T12:27:53.529Z,103100.56
2024-01-28T12:30:22.553Z,103098.09
2024-01-28T12:32:51.751Z,103095.41
2024-01-28T12:35:20.413Z,103095.19
2024-01-28T12:37:50.279Z,103086.28
2024-01-28T12:40:18.655Z,103086.88
2024-01-28T12:42:47.101Z,103092.50
2024-01-28T12:45:15.534Z,103088.75
2024-01-28T12:47:44.267Z,103082.56
2024-01-28T12:50:13.070Z,103070.16
2024-01-28T12:52:41.360Z,103071.81
2024-01-28T12:55:12.416Z,103078.81
2024-01-28T12:57:43.303Z,103076.13
2024-01-28T13:00:13.627Z,103078.00
2024-01-28T13:02:42.461Z,103068.06
2024-01-28T13:05:12.143Z,103075.31
2024-01-28T13:07:41.561Z,103061.88
2024-01-28T13:10:12.005Z,103067.25
2024-01-28T13:12:43.302Z,103051.09
2024-01-28T13:15:11.999Z,103050.06
2024-01-28T13:17:41.350Z,103038.94
2024-01-28T13:20:11.106Z,103047.41
2024-01-28T13:22:45.004Z,103043.63
2024-01-28T13:25:16.691Z,103039.31
2024-01-28T13:27:45.167Z,103033.94
2024-01-28T13:30:14.762Z,103032.88
2024-01-28T13:32:44.592Z,103036.41
2024-01-28T13:35:13.260Z,103032.06
2024-01-28T13:37:42.343Z,103036.63
2024-01-28T13:40:11.577Z,103038.25
2024-01-28T13:42:41.352Z,103043.41
2024-01-28T13:45:12.759Z,103032.88
2024-01-28T13:47:43.136Z,103024.00
2024-01-28T13:50:11.740Z,103036.41
2024-01-28T13:52:40.118Z,103036.41
2024-01-28T13:55:11.686Z,103032.88
2024-01-28T13:57:41.671Z,103031.84
2024-01-28T14:00:11.789Z,103028.34
2024-01-28T14:02:43.339Z,103031.03
2024-01-28T14:05:13.824Z,103032.88
2024-01-28T14:07:42.410Z,103029.16
2024-01-28T14:10:11.744Z,103030.81
2024-01-28T14:12:41.474Z,103023.78
2024-01-28T14:15:11.332Z,103010.34
2024-01-28T14:17:40.005Z,103013.03
2024-01-28T14:20:09.562Z,103016.53
2024-01-28T14:22:37.944Z,103007.66
2024-01-28T14:25:06.640Z,103017.38
2024-01-28T14:27:35.176Z,103007.66
2024-01-28T14:30:05.438Z,103007.66
2024-01-28T14:32:34.157Z,103005.78
2024-01-28T14:35:02.610Z,103003.94
2024-01-28T14:37:31.115Z,102993.19
2024-01-28T14:39:59.650Z,103001.25
2024-01-28T14:42:27.959Z,103002.28
2024-01-28T14:44:58.657Z,103003.94
2024-01-28T14:47:28.642Z,102998.56
2024-01-28T14:49:58.098Z,102995.03
2024-01-28T14:52:26.721Z,103000.19
2024-01-28T14:54:55.251Z,102995.66
2024-01-28T14:57:24.058Z,102994.81
2024-01-28T14:59:52.436Z,102999.38
2024-01-28T15:02:20.925Z,103003.94
2024-01-28T15:04:50.632Z,102994.00
2024-01-28T15:07:19.087Z,102985.13
2024-01-28T15:09:47.476Z,102992.13
2024-01-28T15:12:19.548Z,102994.81
2024-01-28T15:14:49.776Z,102990.28
2024-01-28T15:17:18.060Z,102982.03
2024-01-28T15:19:46.447Z,102991.09
2024-01-28T15:22:16.329Z,102990.28
2024-01-28T15:24:44.633Z,102992.13
2024-01-28T15:27:12.988Z,103001.84
2024-01-28T15:29:41.223Z,102993.78
2024-01-28T15:32:09.941Z,103003.72
2024-01-28T15:34:38.177Z,102996.47
2024-01-28T15:37:06.512Z,102991.91
2024-01-28T15:39:36.551Z,102986.53
2024-01-28T15:42:05.520Z,102991.91
2024-01-28T15:44:33.676Z,102985.72
2024-01-28T15:47:01.932Z,102989.00
2024-01-28T15:49:30.215Z,102991.09
2024-01-28T15:51:58.514Z,102995.44
2024-01-28T15:54:26.800Z,102985.72
2024-01-28T15:56:56.646Z,102987.38
2024-01-28T15:59:25.067Z,102991.69
2024-01-28T16:01:53.318Z,102988.19
2024-01-28T16:04:21.558Z,102986.53
2024-01-28T16:06:49.992Z,102986.53
2024-01-28T16:09:18.508Z,102974.75
2024-01-28T16:11:46.818Z,102977.66
2024-01-28T16:14:16.435Z,102980.94
2024-01-28T16:16:44.597Z,102976.63
2024-01-28T16:19:14.802Z,102973.94
2024-01-28T16:21:43.310Z,102983.84
2024-01-28T16:24:11.739Z,102974.16
2024-01-28T16:26:39.959Z,102979.31
2024-01-28T16:29:08.320Z,102988.19
2024-01-28T16:31:37.988Z,102981.38
2024-01-28T16:34:08.607Z,102984.06
2024-01-28T16:36:36.989Z,102988.19
2024-01-28T16:39:05.265Z,102988.19
2024-01-28T16:41:33.479Z,102981.16
2024-01-28T16:44:01.727Z,102979.31
2024-01-28T16:46:31.318Z,102976.63
2024-01-28T16:49:02.154Z,102969.59
2024-01-28T16:51:30.464Z,102967.13
2024-01-28T16:53:59.636Z,102965.03
2024-01-28T16:56:28.028Z,102967.50
2024-01-28T16:58:56.632Z,102955.13
2024-01-28T17:01:26.004Z,102955.94
2024-01-28T17:03:54.429Z,102959.44
2024-01-28T17:06:24.217Z,102956.75
2024-01-28T17:08:52.534Z,102956.16
2024-01-28T17:11:20.783Z,102969.38
2024-01-28T17:13:49.110Z,102966.09
2024-01-28T17:16:17.377Z,102959.66
2024-01-28T17:18:46.219Z,102967.94
2024-01-28T17:21:16.372Z,102970.41
2024-01-28T17:23:48.710Z,102974.75
2024-01-28T17:26:17.115Z,102963.41
2024-01-28T17:28:45.340Z,102968.56
2024-01-28T17:31:13.564Z,102972.06
2024-01-28T17:33:41.938Z,102970.41
2024-01-28T17:36:10.384Z,102974.97
2024-01-28T17:38:38.679Z,102974.16
2024-01-28T17:41:08.404Z,102976.84
2024-01-28T17:43:36.658Z,102971.47
2024-01-28T17:46:05.005Z,102969.59
2024-01-28T17:48:33.389Z,102968.78
2024-01-28T17:51:01.719Z,102969.00
2024-01-28T17:53:29.912Z,102970.63
2024-01-28T17:55:58.723Z,102973.31
2024-01-28T17:58:28.330Z,102977.66
2024-01-28T18:00:56.666Z,102969.81
2024-01-28T18:03:25.062Z,102976.84
2024-01-28T18:05:53.324Z,102981.16
2024-01-28T18:08:21.676Z,102974.38
2024-01-28T18:10:49.858Z,102973.31
2024-01-28T18:13:18.136Z,102973.31
2024-01-28T18:15:47.882Z,102969.81
2024-01-28T18:18:16.292Z,102974.16
2024-01-28T18:20:44.644Z,102972.50
2024-01-28T18:23:12.942Z,102969.00
2024-01-28T18:25:41.232Z,102974.97
2024-01-28T18:28:10.466Z,102965.25
2024-01-28T18:30:39.253Z,102971.69
2024-01-28T18:33:09.489Z,102964.44
2024-01-28T18:35:37.847Z,102972.50
2024-01-28T18:38:06.073Z,102975.63
2024-01-28T18:40:34.342Z,102975.19
2024-01-28T18:43:02.675Z,102983.25
2024-01-28T18:45:31.593Z,102978.69
2024-01-28T18:47:59.905Z,102972.50
2024-01-28T18:50:29.520Z,102970.63
2024-01-28T18:52:58.564Z,102974.38
2024-01-28T18:55:26.825Z,102974.38
2024-01-28T18:57:55.175Z,102967.13
2024-01-28T19:00:23.650Z,102971.69
2024-01-28T19:02:51.932Z,102972.72
2024-01-28T19:05:20.523Z,102970.84
2024-01-28T19:07:52.940Z,102959.28
2024-01-28T19:10:21.213Z,102963.63
2024-01-28T19:12:49.703Z,102967.13
2024-01-28T19:15:17.982Z,102967.13
2024-01-28T19:17:46.398Z,102960.09
2024-01-28T19:20:20.677Z,102970.84
2024-01-28T19:22:50.370Z,102974.38
2024-01-28T19:25:18.761Z,102969.00
2024-01-28T19:27:48.485Z,102967.94
2024-01-28T19:30:17.534Z,102971.69
2024-01-28T19:32:45.541Z,102972.72
2024-01-28T19:35:13.966Z,102967.13
2024-01-28T19:37:42.237Z,102966.31
2024-01-28T19:40:13.648Z,102952.88
2024-01-28T19:42:42.313Z,102962.56
2024-01-28T19:45:13.037Z,102962.56
2024-01-28T19:47:42.381Z,102952.88
2024-01-28T19:50:10.997Z,102951.81
2024-01-28T19:52:39.282Z,102943.97
2024-01-28T19:55:07.960Z,102951.81
2024-01-28T19:57:37.615Z,102943.97
2024-01-28T20:00:07.276Z,102942.13
2024-01-28T20:02:36.819Z,102950.19
2024-01-28T20:05:05.862Z,102934.06
2024-01-28T20:07:33.882Z,102932.19
2024-01-28T20:10:04.645Z,102934.06
2024-01-28T20:12:32.970Z,102927.84
2024-01-28T20:15:02.765Z,102930.53
2024-01-28T20:17:30.961Z,102934.88
2024-01-28T20:19:59.476Z,102927.84
2024-01-28T20:22:28.332Z,102928.69
2024-01-28T20:24:57.080Z,102922.47
2024-01-28T20:27:26.342Z,102918.16
2024-01-28T20:29:54.790Z,102915.47
2024-01-28T20:32:24.667Z,102927.03
2024-01-28T20:34:53.268Z,102924.34
2024-01-28T20:37:23.614Z,102922.47
2024-01-28T20:39:51.949Z,102919.78
2024-01-28T20:42:20.675Z,102907.63
2024-01-28T20:44:48.924Z,102912.56
2024-01-28T20:47:18.805Z,102907.19
2024-01-28T20:49:50.611Z,102908.22
2024-01-28T20:52:19.005Z,102901.81
2024-01-28T20:54:47.293Z,102899.34
2024-01-28T20:57:15.869Z,102898.50
2024-01-28T20:59:45.423Z,102899.34
2024-01-28T21:02:17.326Z,102905.53
2024-01-28T21:04:47.784Z,102902.03
2024-01-28T21:07:17.135Z,102892.31
2024-01-28T21:09:45.357Z,102894.78
2024-01-28T21:12:13.694Z,102887.97
2024-01-28T21:14:42.034Z,102892.09
2024-01-28T21:17:10.210Z,102898.50
2024-01-28T21:19:38.547Z,102892.31
2024-01-28T21:22:08.318Z,102894.78
2024-01-28T21:24:36.696Z,102889.41
2024-01-28T21:27:05.130Z,102889.41
2024-01-28T21:29:34.034Z,102884.25
2024-01-28T21:32:02.470Z,102887.75
2024-01-28T21:34:30.997Z,102895.81
2024-01-28T21:36:59.573Z,102887.75
2024-01-28T21:39:29.322Z,102893.97
2024-01-28T21:41:57.554Z,102892.09
2024-01-28T21:44:26.554Z,102887.75
2024-01-28T21:46:55.694Z,102884.25
2024-01-28T21:49:24.372Z,102891.50
2024-01-28T21:51:52.613Z,102888.81
2024-01-28T21:54:20.949Z,102880.75
2024-01-28T21:56:50.699Z,102882.38
2024-01-28T21:59:19.148Z,102874.53
2024-01-28T22:01:47.431Z,102875.38
2024-01-28T22:04:15.829Z,102867.31
2024-01-28T22:06:44.320Z,102870.00
2024-01-28T22:09:12.847Z,102867.31
2024-01-28T22:11:42.380Z,102869.16
2024-01-28T22:14:13.395Z,102870.00
2024-01-28T22:16:41.568Z,102876.19
2024-01-28T22:19:10.219Z,102876.19
2024-01-28T22:21:38.584Z,102872.69
2024-01-28T22:24:08.527Z,102873.72
2024-01-28T22:26:38.026Z,102868.13
2024-01-28T22:29:06.638Z,102875.38
2024-01-28T22:31:36.198Z,102874.53
2024-01-28T22:34:04.533Z,102866.47
2024-01-28T22:36:32.852Z,102873.94
2024-01-28T22:39:01.278Z,102869.41
2024-01-28T22:41:29.779Z,102873.94
2024-01-28T22:43:59.251Z,102866.72
2024-01-28T22:46:28.245Z,102877.47
2024-01-28T22:48:57.706Z,102879.09
2024-01-28T22:51:26.090Z,102885.28
2024-01-28T22:53:54.326Z,102880.16
2024-01-28T22:56:22.513Z,102869.63
2024-01-28T22:58:50.829Z,102864.03
2024-01-28T23:01:20.793Z,102858.66
2024-01-28T23:03:49.552Z,102860.72
2024-01-28T23:06:21.241Z,102865.06
2024-01-28T23:08:49.477Z,102869.41
2024-01-28T23:11:17.712Z,102858.66
2024-01-28T23:13:45.862Z,102855.34
2024-01-28T23:16:14.202Z,102854.31
2024-01-28T23:18:42.702Z,102851.63
2024-01-28T23:21:11.055Z,102837.38
2024-01-28T23:23:40.669Z,102844.59
2024-01-28T23:26:08.888Z,102845.66
2024-01-28T23:28:37.086Z,102841.91
2024-01-28T23:31:09.338Z,102842.75
2024-01-28T23:33:37.911Z,102835.72
2024-01-28T23:36:07.417Z,102836.53
2024-01-28T23:38:35.593Z,102832.00
2024-01-28T23:41:05.808Z,102829.53
2024-01-28T23:43:34.021Z,102831.16
2024-01-28T23:46:02.934Z,102833.03
2024-01-28T23:48:31.014Z,102831.16
2024-01-28T23:50:59.287Z,102829.53
2024-01-28T23:53:27.480Z,102831.38
2024-01-28T23:55:55.770Z,102831.16
2024-01-28T23:58:25.902Z,102832.00
